Time;durP1;ratioP1;P1;durP2;ratioP2;P2;SDS_P1;SDS_P2;PMS_P1;PMS_P2;Temp;Humidity;BMP_temperature;BMP_pressure;BME280_temperature;BME280_humidity;BME280_pressure;Samples;Min_cycle;Max_cycle;Signal;HPM_P1;HPM_P2
2022/05/20 00:01:16;;;;;;;4.00;3.33;;;21.20;1.00;;;;;;5078932;28;20468;-78
2022/05/20 00:03:46;;;;;;;4.40;4.00;;;21.20;1.00;;;;;;5082284;27;21184;-80
2022/05/20 00:06:13;;;;;;;4.63;3.17;;;21.20;1.00;;;;;;5070263;28;20470;-80
2022/05/20 00:08:40;;;;;;;5.33;3.67;;;21.10;1.00;;;;;;5083595;28;20540;-78
2022/05/20 00:11:07;;;;;;;4.23;3.60;;;21.10;1.00;;;;;;5085175;28;20452;-78
2022/05/20 00:13:37;;;;;;;4.47;3.63;;;21.10;1.00;;;;;;5094453;28;20444;-79
2022/05/20 00:16:07;;;;;;;5.43;3.67;;;21.10;1.00;;;;;;5087529;28;20417;-79
2022/05/20 00:18:39;;;;;;;4.93;3.87;;;21.00;1.00;;;;;;5086130;27;20427;-81
2022/05/20 00:21:07;;;;;;;7.70;4.37;;;21.00;1.00;;;;;;5087433;28;21097;-81
2022/05/20 00:23:37;;;;;;;4.50;3.70;;;20.90;1.00;;;;;;5078849;28;20446;-77
2022/05/20 00:26:06;;;;;;;5.50;3.33;;;20.80;1.00;;;;;;5088562;28;20459;-76
2022/05/20 00:28:38;;;;;;;4.73;4.03;;;20.80;1.00;;;;;;5088279;28;20449;-77
2022/05/20 00:31:09;;;;;;;4.43;3.60;;;20.80;1.00;;;;;;5083761;27;20458;-75
2022/05/20 00:33:38;;;;;;;4.57;3.50;;;20.70;1.00;;;;;;5079235;28;20466;-78
2022/05/20 00:36:07;;;;;;;4.40;3.30;;;20.70;1.00;;;;;;5087148;28;20474;-80
2022/05/20 00:38:38;;;;;;;3.97;3.20;;;20.70;1.00;;;;;;5088398;28;20475;-83
2022/05/20 00:41:08;;;;;;;4.23;3.83;;;20.60;1.00;;;;;;5096321;28;20462;-78
2022/05/20 00:43:47;;;;;;;4.80;3.50;;;20.50;1.00;;;;;;5084894;28;22404;-84
2022/05/20 00:46:20;;;;;;;4.63;4.00;;;20.50;1.00;;;;;;5079056;28;20422;-79
2022/05/20 00:48:50;;;;;;;5.77;4.00;;;20.50;1.00;;;;;;5087160;28;20438;-80
2022/05/20 00:51:37;;;;;;;6.30;3.97;;;20.40;1.00;;;;;;5084812;28;20560;-78
2022/05/20 00:54:17;;;;;;;4.70;3.20;;;20.40;1.00;;;;;;5083836;28;20431;-79
2022/05/20 00:56:51;;;;;;;4.33;3.83;;;20.40;1.00;;;;;;5085217;28;20464;-78
2022/05/20 00:59:27;;;;;;;5.30;4.00;;;20.30;1.00;;;;;;5084541;28;21073;-79
2022/05/20 01:04:35;;;;;;;5.50;4.00;;;20.20;1.00;;;;;;5574419;22;20481;-77
2022/05/20 01:07:02;;;;;;;4.10;3.63;;;20.10;1.00;;;;;;5063423;28;20447;-78
2022/05/20 01:09:29;;;;;;;4.70;3.70;;;20.10;1.00;;;;;;5070842;28;20939;-78
2022/05/20 01:11:56;;;;;;;4.30;3.83;;;20.10;1.00;;;;;;5084178;28;20445;-78
2022/05/20 01:14:26;;;;;;;4.57;3.90;;;20.00;1.00;;;;;;5083203;28;20856;-76
2022/05/20 01:16:58;;;;;;;5.00;4.17;;;20.00;1.00;;;;;;5081745;28;20448;-77
2022/05/20 01:19:37;;;;;;;4.53;4.00;;;20.00;1.00;;;;;;5075954;28;24689;-77
2022/05/20 01:22:07;;;;;;;4.63;3.90;;;19.90;1.00;;;;;;5103176;28;20450;-79
2022/05/20 01:24:38;;;;;;;7.07;4.60;;;19.90;1.00;;;;;;5104464;27;20444;-78
2022/05/20 01:27:05;;;;;;;4.57;4.17;;;19.90;1.00;;;;;;5105421;28;20449;-78
2022/05/20 01:29:36;;;;;;;5.70;4.23;;;19.80;1.00;;;;;;5093584;28;20527;-78
2022/05/20 01:32:03;;;;;;;4.50;3.93;;;19.70;1.00;;;;;;5103228;27;20534;-78
2022/05/20 01:34:30;;;;;;;4.30;3.90;;;19.60;1.00;;;;;;5098709;27;20515;-82
2022/05/20 01:36:59;;;;;;;5.07;4.10;;;19.60;1.00;;;;;;5101097;28;20485;-77
2022/05/20 01:39:26;;;;;;;4.90;4.40;;;19.50;1.00;;;;;;5102481;28;20658;-75
2022/05/20 01:42:06;;;;;;;7.20;5.00;;;19.40;1.00;;;;;;5092662;27;20462;-77
2022/05/20 01:44:41;;;;;;;4.63;4.20;;;19.30;1.00;;;;;;5101981;27;20453;-81
2022/05/20 01:47:17;;;;;;;5.43;4.93;;;19.30;1.00;;;;;;5091580;27;20457;-80
2022/05/20 01:49:49;;;;;;;5.20;4.70;;;19.30;1.00;;;;;;5081463;27;20902;-83
2022/05/20 01:52:23;;;;;;;5.63;5.13;;;19.20;1.00;;;;;;5098581;27;20406;-77
2022/05/20 01:54:59;;;;;;;5.63;5.13;;;19.20;1.00;;;;;;5092995;28;20461;-81
2022/05/20 01:57:36;;;;;;;6.47;5.87;;;19.20;1.00;;;;;;5098527;27;20797;-79
2022/05/20 02:00:08;;;;;;;8.07;7.37;;;19.10;1.00;;;;;;5093515;27;20527;-77
2022/05/20 02:02:43;;;;;;;8.10;6.87;;;19.10;1.00;;;;;;5104731;28;20418;-83
2022/05/20 02:05:18;;;;;;;6.70;6.10;;;19.10;1.00;;;;;;5100022;27;20453;-82
2022/05/20 02:07:50;;;;;;;7.03;6.50;;;19.00;1.00;;;;;;5086598;28;20461;-76
2022/05/20 02:10:26;;;;;;;8.80;8.00;;;19.00;1.00;;;;;;5079086;28;20535;-79
2022/05/20 02:13:00;;;;;;;8.80;8.10;;;18.90;1.00;;;;;;5096299;27;20474;-78
2022/05/20 02:15:31;;;;;;;9.30;8.37;;;18.80;1.00;;;;;;5101247;28;20450;-82
2022/05/20 02:18:02;;;;;;;9.77;8.90;;;18.80;1.00;;;;;;5098298;27;20460;-77
2022/05/20 02:20:39;;;;;;;9.90;9.10;;;18.80;1.00;;;;;;5100540;28;20551;-77
2022/05/20 02:23:13;;;;;;;8.77;8.00;;;18.70;1.00;;;;;;5100963;28;20445;-77
2022/05/20 02:25:46;;;;;;;8.50;7.80;;;18.80;1.00;;;;;;5080277;28;20978;-78
2022/05/20 02:28:22;;;;;;;9.87;8.97;;;18.80;1.00;;;;;;5080657;28;21036;-79
2022/05/20 02:30:50;;;;;;;9.80;9.00;;;18.80;1.00;;;;;;5101836;27;20481;-84
2022/05/20 02:33:21;;;;;;;10.13;9.13;;;18.80;1.00;;;;;;5103904;27;20414;-78
2022/05/20 02:35:48;;;;;;;10.80;9.90;;;18.80;1.00;;;;;;5104596;27;21396;-78
2022/05/20 02:38:22;;;;;;;10.40;9.50;;;18.80;1.00;;;;;;5102828;28;20451;-78
2022/05/20 02:40:57;;;;;;;10.37;9.47;;;18.70;1.00;;;;;;5092543;28;20465;-84
2022/05/20 02:43:24;;;;;;;9.87;9.07;;;18.80;1.00;;;;;;5101125;27;20473;-77
2022/05/20 02:45:57;;;;;;;9.77;9.03;;;18.80;1.00;;;;;;5096194;27;20450;-76
2022/05/20 02:48:24;;;;;;;12.40;9.60;;;18.90;1.00;;;;;;5103140;27;20466;-77
2022/05/20 02:50:51;;;;;;;13.30;9.90;;;18.90;1.00;;;;;;5103178;27;20523;-78
2022/05/20 02:53:19;;;;;;;10.27;9.30;;;19.00;1.00;;;;;;5098566;27;20411;-82
2022/05/20 02:55:46;;;;;;;9.80;9.00;;;19.00;1.00;;;;;;5106268;27;20462;-79
2022/05/20 03:06:39;;;;;;;11.07;10.07;;;18.80;1.00;;;;;;5103006;28;20548;-77
2022/05/20 03:09:06;;;;;;;10.90;10.00;;;18.80;1.00;;;;;;5102450;28;20560;-75
2022/05/20 03:11:39;;;;;;;11.07;10.17;;;18.80;1.00;;;;;;5106552;27;20593;-77
2022/05/20 03:14:08;;;;;;;11.77;10.67;;;18.80;1.00;;;;;;5100669;27;20572;-79
2022/05/20 03:16:39;;;;;;;10.70;9.80;;;18.80;1.00;;;;;;5104070;28;20448;-79
2022/05/20 03:19:07;;;;;;;11.77;10.67;;;18.80;1.00;;;;;;5100909;28;20558;-78
2022/05/20 03:21:39;;;;;;;9.57;8.70;;;18.90;1.00;;;;;;5102158;27;20454;-77
2022/05/20 03:24:08;;;;;;;11.23;10.20;;;18.90;1.00;;;;;;5105281;27;20450;-83
2022/05/20 03:26:39;;;;;;;11.37;10.37;;;19.00;1.00;;;;;;5100885;28;20445;-79
2022/05/20 03:29:06;;;;;;;10.63;9.63;;;19.00;1.00;;;;;;5101499;28;21407;-79
2022/05/20 03:31:38;;;;;;;10.27;9.33;;;19.00;1.00;;;;;;5101057;28;20553;-84
2022/05/20 03:34:08;;;;;;;10.67;8.80;;;18.90;1.00;;;;;;5098561;28;20462;-83
2022/05/20 03:36:41;;;;;;;10.00;9.20;;;19.00;1.00;;;;;;5100022;28;20423;-77
2022/05/20 03:39:09;;;;;;;9.80;8.90;;;19.10;1.00;;;;;;5101898;27;21205;-78
2022/05/20 03:41:39;;;;;;;9.97;9.07;;;19.10;1.00;;;;;;5106466;27;20439;-80
2022/05/20 03:44:06;;;;;;;10.03;9.13;;;19.10;1.00;;;;;;5094438;27;20461;-78
2022/05/20 03:46:39;;;;;;;9.00;8.20;;;19.10;1.00;;;;;;5104640;28;20536;-80
2022/05/20 03:49:08;;;;;;;9.07;8.27;;;19.10;1.00;;;;;;5103833;27;20471;-76
2022/05/20 03:51:39;;;;;;;10.30;9.30;;;19.10;1.00;;;;;;5106929;28;20494;-83
2022/05/20 03:54:06;;;;;;;10.43;9.43;;;19.20;1.00;;;;;;5107822;28;20885;-77
2022/05/20 03:56:40;;;;;;;9.33;8.53;;;19.20;1.00;;;;;;5097198;27;20470;-77
2022/05/20 03:59:08;;;;;;;9.10;8.30;;;19.30;1.00;;;;;;5093041;28;20522;-79
2022/05/20 04:01:58;;;;;;;10.77;9.77;;;19.30;1.00;;;;;;5081731;28;20419;-78
2022/05/20 04:04:29;;;;;;;11.20;10.20;;;19.30;1.00;;;;;;5097636;28;20547;-79
2022/05/20 04:07:00;;;;;;;9.87;9.00;;;19.30;1.00;;;;;;5102887;28;20425;-79
2022/05/20 04:09:26;;;;;;;10.50;9.60;;;19.30;1.00;;;;;;5076745;28;20463;-83
2022/05/20 04:11:59;;;;;;;11.50;10.47;;;19.20;1.00;;;;;;5090766;28;20445;-76
2022/05/20 04:14:28;;;;;;;11.13;10.23;;;19.20;1.00;;;;;;5104181;28;20921;-78
2022/05/20 04:16:59;;;;;;;11.20;10.20;;;19.30;1.00;;;;;;5103560;27;20550;-83
2022/05/20 04:19:30;;;;;;;10.67;9.67;;;19.30;1.00;;;;;;5097093;28;20485;-79
2022/05/20 04:22:02;;;;;;;11.43;10.33;;;19.40;1.00;;;;;;5098969;28;20442;-80
2022/05/20 04:24:29;;;;;;;10.83;9.83;;;19.50;1.00;;;;;;5106627;28;20512;-75
2022/05/20 04:27:01;;;;;;;10.70;9.70;;;19.60;1.00;;;;;;5099885;28;20484;-81
2022/05/20 04:29:27;;;;;;;11.90;10.90;;;19.60;1.00;;;;;;5080717;28;20648;-78
2022/05/20 04:32:01;;;;;;;12.10;10.97;;;19.60;1.00;;;;;;5095884;27;20429;-82
2022/05/20 04:34:28;;;;;;;12.43;11.30;;;19.60;1.00;;;;;;5109856;27;20462;-78
2022/05/20 04:36:59;;;;;;;11.30;10.30;;;19.50;1.00;;;;;;5074752;27;20485;-76
2022/05/20 04:39:25;;;;;;;11.77;10.67;;;19.60;1.00;;;;;;5112325;27;20462;-81
2022/05/20 04:47:28;;;;;;;13.53;12.33;;;19.50;1.00;;;;;;5087427;27;20450;-80
2022/05/20 04:50:00;;;;;;;13.00;11.87;;;19.50;1.00;;;;;;5109959;28;20457;-84
2022/05/20 04:52:28;;;;;;;13.10;12.00;;;19.50;1.00;;;;;;5114143;28;20458;-84
2022/05/20 04:54:58;;;;;;;16.03;12.30;;;19.50;1.00;;;;;;5103613;28;20437;-80
2022/05/20 04:57:28;;;;;;;12.63;11.67;;;19.50;1.00;;;;;;5104280;28;20496;-81
2022/05/20 05:00:00;;;;;;;13.60;12.40;;;19.50;1.00;;;;;;5102240;28;20467;-83
2022/05/20 05:02:28;;;;;;;13.50;12.30;;;19.60;1.00;;;;;;5107173;28;20924;-80
2022/05/20 05:05:01;;;;;;;14.13;12.87;;;19.60;1.00;;;;;;5090394;28;20433;-81
2022/05/20 05:07:28;;;;;;;14.53;13.23;;;19.60;1.00;;;;;;5104764;28;20492;-86
2022/05/20 05:10:05;;;;;;;15.30;13.77;;;19.70;1.00;;;;;;5108142;27;20498;-83
2022/05/20 05:12:32;;;;;;;13.57;12.27;;;19.80;1.00;;;;;;5077996;28;21085;-81
2022/05/20 05:15:01;;;;;;;19.27;17.47;;;19.90;1.00;;;;;;5089691;27;20438;-80
2022/05/20 05:20:23;;;;;;;13.53;12.33;;;20.00;1.00;;;;;;5082785;28;21063;-78
2022/05/20 05:22:50;;;;;;;14.27;12.93;;;20.10;1.00;;;;;;5087193;28;20458;-76
2022/05/20 05:25:21;;;;;;;13.60;12.40;;;20.10;1.00;;;;;;5079972;28;20452;-75
2022/05/20 05:27:49;;;;;;;14.00;12.30;;;20.10;1.00;;;;;;5099134;28;20468;-77
2022/05/20 05:30:20;;;;;;;14.87;13.47;;;20.20;1.00;;;;;;5082705;28;20423;-80
2022/05/20 05:32:46;;;;;;;14.60;13.30;;;20.20;1.00;;;;;;5076536;28;20498;-79
2022/05/20 05:35:21;;;;;;;14.90;13.57;;;20.20;1.00;;;;;;5090624;28;20594;-81
2022/05/20 05:37:49;;;;;;;14.63;13.23;;;20.10;1.00;;;;;;5096450;28;20539;-81
2022/05/20 05:40:20;;;;;;;14.67;13.40;;;20.20;1.00;;;;;;5088377;28;20458;-80
2022/05/20 05:42:48;;;;;;;14.57;13.27;;;20.00;1.00;;;;;;5080480;28;20640;-77
2022/05/20 05:45:25;;;;;;;15.47;13.87;;;20.00;1.00;;;;;;5085564;28;20458;-78
2022/05/20 05:48:00;;;;;;;14.93;13.30;;;20.10;1.00;;;;;;5086382;28;20453;-80
2022/05/20 05:50:38;;;;;;;12.90;11.80;;;20.30;1.00;;;;;;5079804;28;20446;-78
2022/05/20 05:53:09;;;;;;;15.77;14.17;;;20.40;1.00;;;;;;5079132;28;21135;-78
2022/05/20 05:55:36;;;;;;;14.77;13.43;;;20.60;1.00;;;;;;5075944;28;20929;-77
2022/05/20 05:58:03;;;;;;;15.90;14.20;;;20.60;1.00;;;;;;5078400;28;20485;-78
2022/05/20 06:00:30;;;;;;;15.37;13.77;;;20.70;1.00;;;;;;5073486;28;20475;-78
2022/05/20 06:02:56;;;;;;;13.83;12.60;;;20.80;1.00;;;;;;5069932;28;21002;-79
2022/05/20 06:05:23;;;;;;;14.37;13.17;;;20.80;1.00;;;;;;5071784;28;20487;-78
2022/05/20 06:07:52;;;;;;;15.63;14.03;;;20.70;1.00;;;;;;5076155;28;20486;-78
2022/05/20 06:10:20;;;;;;;18.87;14.30;;;20.80;1.00;;;;;;5077385;28;20454;-76
2022/05/20 06:12:47;;;;;;;14.73;13.43;;;20.80;1.00;;;;;;5076643;27;21063;-77
2022/05/20 06:15:17;;;;;;;14.17;13.00;;;20.80;1.00;;;;;;5080141;28;20453;-77
2022/05/20 06:17:45;;;;;;;14.53;13.30;;;20.70;1.00;;;;;;5079915;28;20450;-77
2022/05/20 06:20:13;;;;;;;15.27;13.77;;;20.60;1.00;;;;;;5073958;28;20460;-80
2022/05/20 06:22:40;;;;;;;15.00;13.60;;;20.60;1.00;;;;;;5078456;28;20478;-75
2022/05/20 06:25:10;;;;;;;14.57;13.37;;;20.50;1.00;;;;;;5075175;28;20572;-75
2022/05/20 06:27:37;;;;;;;13.60;12.40;;;20.50;1.00;;;;;;5078946;28;20458;-77
2022/05/20 06:30:05;;;;;;;15.57;13.87;;;20.50;1.00;;;;;;5075742;28;20907;-75
2022/05/20 06:32:34;;;;;;;13.00;11.80;;;20.60;1.00;;;;;;5077045;28;20484;-75
2022/05/20 06:40:36;;;;;;;11.00;10.00;;;20.80;1.00;;;;;;5094656;27;20664;-76
2022/05/20 06:43:04;;;;;;;11.93;10.90;;;20.90;1.00;;;;;;5097089;27;20536;-76
2022/05/20 06:45:33;;;;;;;12.37;11.27;;;21.00;1.00;;;;;;5097270;27;20451;-77
2022/05/20 06:47:59;;;;;;;13.57;10.63;;;21.00;1.00;;;;;;5096700;27;20537;-77
2022/05/20 06:50:26;;;;;;;12.13;11.03;;;21.10;1.00;;;;;;5097392;27;20561;-76
2022/05/20 06:52:52;;;;;;;11.40;10.47;;;20.90;1.00;;;;;;5096836;27;20576;-78
2022/05/20 06:55:19;;;;;;;11.40;10.40;;;20.80;1.00;;;;;;5093309;27;20454;-75
2022/05/20 06:57:47;;;;;;;15.40;11.33;;;20.80;1.00;;;;;;5095989;27;21329;-74
2022/05/20 07:00:14;;;;;;;10.50;9.60;;;20.90;1.00;;;;;;5093647;27;20466;-79
2022/05/20 07:02:41;;;;;;;10.37;9.43;;;20.90;1.00;;;;;;5097116;28;20536;-76
2022/05/20 07:05:10;;;;;;;11.10;10.20;;;20.90;1.00;;;;;;5097627;27;20457;-75
2022/05/20 07:07:40;;;;;;;10.43;9.20;;;21.00;1.00;;;;;;5089378;27;20454;-80
2022/05/20 07:10:12;;;;;;;9.97;9.07;;;21.00;1.00;;;;;;5098616;28;20462;-79
2022/05/20 07:12:39;;;;;;;9.73;8.93;;;21.10;1.00;;;;;;5100544;27;20490;-80
2022/05/20 07:15:09;;;;;;;12.00;9.30;;;21.20;1.00;;;;;;5101658;28;20528;-79
2022/05/20 07:17:36;;;;;;;10.37;8.77;;;21.20;1.00;;;;;;5102148;27;20529;-80
2022/05/20 07:20:04;;;;;;;9.00;8.10;;;21.20;1.00;;;;;;5104925;27;20994;-79
2022/05/20 07:22:30;;;;;;;9.43;8.63;;;21.30;1.00;;;;;;5103815;27;20587;-81
2022/05/20 07:24:58;;;;;;;8.97;8.13;;;21.10;1.00;;;;;;5105278;27;20429;-80
2022/05/20 07:27:27;;;;;;;7.57;6.83;;;21.10;1.00;;;;;;5099705;28;20597;-80
2022/05/20 07:29:54;;;;;;;11.43;6.63;;;21.20;1.00;;;;;;5087651;27;20437;-80
2022/05/20 07:32:22;;;;;;;7.37;6.70;;;21.20;1.00;;;;;;5100613;27;20563;-78
2022/05/20 07:34:49;;;;;;;8.05;7.22;;;21.30;1.00;;;;;;5102211;27;20427;-77
2022/05/20 07:37:16;;;;;;;7.80;6.67;;;21.20;1.00;;;;;;5099760;27;20305;-78
2022/05/20 07:39:42;;;;;;;10.50;8.33;;;21.40;1.00;;;;;;5096671;27;20505;-80
2022/05/20 07:42:10;;;;;;;7.00;6.40;;;21.60;1.00;;;;;;5106959;27;20482;-78
2022/05/20 07:44:36;;;;;;;8.90;7.13;;;21.70;1.00;;;;;;5106688;28;20985;-77
2022/05/20 07:47:04;;;;;;;8.30;7.40;;;21.70;1.00;;;;;;5100864;27;20453;-77
2022/05/20 07:49:32;;;;;;;7.70;7.00;;;21.70;1.00;;;;;;5103352;27;20965;-78
2022/05/20 07:52:03;;;;;;;7.83;6.80;;;21.70;1.00;;;;;;5097857;27;20478;-78
2022/05/20 07:54:33;;;;;;;6.83;6.23;;;21.70;1.00;;;;;;5084216;28;20470;-77
2022/05/20 07:57:03;;;;;;;25.27;23.53;;;21.80;1.00;;;;;;5064756;28;22342;-78
2022/05/20 07:59:38;;;;;;;6.90;6.30;;;21.80;1.00;;;;;;5081923;27;20489;-83
2022/05/20 08:02:05;;;;;;;7.77;7.07;;;21.80;1.00;;;;;;5104548;28;20541;-78
2022/05/20 08:04:55;;;;;;;6.63;6.03;;;22.00;1.00;;;;;;5101242;27;20462;-80
2022/05/20 08:07:25;;;;;;;7.07;6.47;;;22.10;1.00;;;;;;5080131;28;20599;-78
2022/05/20 08:09:52;;;;;;;7.80;6.60;;;22.20;1.00;;;;;;5087212;28;20489;-79
2022/05/20 08:12:19;;;;;;;7.10;6.50;;;22.30;1.00;;;;;;5104635;28;20923;-78
2022/05/20 08:14:46;;;;;;;7.77;6.53;;;22.40;1.00;;;;;;5103879;28;20551;-79
2022/05/20 08:17:13;;;;;;;6.57;5.40;;;22.50;1.00;;;;;;5107276;28;20504;-78
2022/05/20 08:19:41;;;;;;;9.40;5.43;;;22.70;1.00;;;;;;5099809;28;20472;-81
2022/05/20 08:22:08;;;;;;;15.97;7.37;;;22.80;1.00;;;;;;5098787;28;21319;-81
2022/05/20 08:24:35;;;;;;;6.20;5.20;;;22.90;1.00;;;;;;5096602;28;20561;-79
2022/05/20 08:27:02;;;;;;;9.50;6.13;;;22.80;1.00;;;;;;5085717;28;20410;-77
2022/05/20 08:29:28;;;;;;;18.53;6.80;;;22.80;1.00;;;;;;5104007;27;20449;-79
2022/05/20 08:31:57;;;;;;;7.87;5.80;;;22.90;1.00;;;;;;5095460;27;22266;-80
2022/05/20 08:34:24;;;;;;;6.60;6.00;;;23.00;1.00;;;;;;5079806;27;20430;-77
2022/05/20 08:36:52;;;;;;;6.30;5.70;;;23.00;1.00;;;;;;5098195;28;20465;-78
2022/05/20 08:39:22;;;;;;;6.37;5.70;;;23.00;1.00;;;;;;5101137;27;20454;-79
2022/05/20 08:41:52;;;;;;;8.90;5.87;;;23.00;1.00;;;;;;5097967;27;20470;-79
2022/05/20 08:44:21;;;;;;;6.00;5.20;;;23.20;1.00;;;;;;5097306;27;21488;-79
2022/05/20 08:46:49;;;;;;;5.30;4.40;;;23.40;1.00;;;;;;5100214;27;20474;-78
2022/05/20 08:49:18;;;;;;;5.50;4.97;;;23.50;1.00;;;;;;5101575;28;20891;-76
2022/05/20 08:51:52;;;;;;;6.50;5.30;;;23.70;1.00;;;;;;5097824;27;20489;-77
2022/05/20 08:54:20;;;;;;;5.90;5.30;;;23.80;1.00;;;;;;5101652;27;20458;-78
2022/05/20 08:56:55;;;;;;;5.93;4.40;;;23.80;1.00;;;;;;5092901;27;20559;-79
2022/05/20 08:59:23;;;;;;;4.30;3.50;;;23.90;1.00;;;;;;5098038;27;20514;-79
2022/05/20 09:01:52;;;;;;;5.10;4.60;;;23.90;1.00;;;;;;5096714;27;20809;-79
2022/05/20 09:04:21;;;;;;;4.80;4.40;;;24.20;1.00;;;;;;5099905;27;20535;-81
2022/05/20 09:07:01;;;;;;;5.33;4.83;;;24.20;1.00;;;;;;5089007;27;20481;-78
2022/05/20 09:09:40;;;;;;;5.93;5.33;;;24.30;1.00;;;;;;5101502;27;20457;-80
2022/05/20 09:12:08;;;;;;;6.93;4.70;;;24.40;1.00;;;;;;5105061;28;20481;-82
2022/05/20 09:17:22;;;;;;;4.93;4.47;;;24.60;1.00;;;;;;5101823;27;20533;-81
2022/05/20 09:19:56;;;;;;;6.27;3.80;;;24.60;1.00;;;;;;5102488;28;20964;-82
2022/05/20 09:22:28;;;;;;;5.63;3.70;;;24.70;1.00;;;;;;5104519;27;20453;-80
2022/05/20 09:24:57;;;;;;;5.53;4.17;;;24.90;1.00;;;;;;5097608;27;20484;-83
2022/05/20 09:27:30;;;;;;;5.03;4.27;;;25.10;1.00;;;;;;5103501;27;20516;-81
2022/05/20 09:30:00;;;;;;;7.13;4.37;;;25.40;1.00;;;;;;5101128;28;20465;-79
2022/05/20 09:32:34;;;;;;;4.97;3.60;;;26.20;1.00;;;;;;5099897;27;21058;-82
2022/05/20 09:35:03;;;;;;;4.73;3.43;;;27.30;1.00;;;;;;5102522;27;20984;-81
2022/05/20 09:37:33;;;;;;;4.70;4.20;;;28.50;1.00;;;;;;5106367;27;20444;-79
2022/05/20 09:40:20;;;;;;;5.33;4.03;;;29.60;1.00;;;;;;5102152;27;20475;-79
2022/05/20 09:43:05;;;;;;;5.87;3.47;;;30.70;1.00;;;;;;5077691;27;20473;-81
2022/05/20 09:45:42;;;;;;;15.43;13.40;;;31.20;1.00;;;;;;5066196;28;20532;-82
2022/05/20 09:48:09;;;;;;;4.50;3.63;;;31.80;1.00;;;;;;5085481;28;20470;-80
2022/05/20 09:50:38;;;;;;;7.43;3.97;;;32.30;1.00;;;;;;5084791;28;20457;-82
2022/05/20 09:53:14;;;;;;;6.13;3.87;;;32.40;1.00;;;;;;5083858;28;20505;-80
2022/05/20 09:55:44;;;;;;;5.97;3.57;;;32.90;1.00;;;;;;5080438;28;20539;-80
2022/05/20 09:58:16;;;;;;;4.00;3.37;;;33.20;1.00;;;;;;5082537;27;20471;-81
2022/05/20 10:00:46;;;;;;;5.83;3.83;;;33.30;1.00;;;;;;5077885;28;20533;-78
2022/05/20 10:03:21;;;;;;;4.33;3.80;;;33.60;1.00;;;;;;5081194;28;20975;-78
2022/05/20 10:05:55;;;;;;;4.00;3.60;;;33.70;1.00;;;;;;5078325;28;20450;-80
2022/05/20 10:08:28;;;;;;;5.33;3.40;;;34.10;1.00;;;;;;5064894;28;20544;-80
2022/05/20 10:11:04;;;;;;;6.83;3.30;;;34.00;1.00;;;;;;5079672;28;20462;-81
2022/05/20 10:13:53;;;;;;;5.30;3.33;;;34.30;1.00;;;;;;5089218;27;20567;-78
2022/05/20 10:16:32;;;;;;;4.13;3.53;;;34.30;1.00;;;;;;5081769;28;20454;-80
2022/05/20 10:19:08;;;;;;;4.50;3.63;;;34.50;1.00;;;;;;5078289;28;20846;-78
2022/05/20 10:21:51;;;;;;;6.37;4.10;;;34.70;1.00;;;;;;5080263;28;20450;-82
2022/05/20 10:24:33;;;;;;;4.47;3.30;;;34.60;1.00;;;;;;5090808;27;20482;-79
2022/05/20 10:27:09;;;;;;;6.10;3.50;;;34.50;1.00;;;;;;5082099;28;20498;-79
2022/05/20 10:32:35;;;;;;;5.93;3.63;;;34.30;1.00;;;;;;5088297;28;20439;-79
2022/05/20 10:35:05;;;;;;;5.00;3.73;;;34.80;1.00;;;;;;5084347;28;20500;-79
2022/05/20 10:37:47;;;;;;;5.77;3.30;;;35.10;1.00;;;;;;5109371;27;20457;-80
2022/05/20 10:40:40;;;;;;;4.50;4.10;;;35.20;1.00;;;;;;5093638;28;20532;-79
2022/05/20 10:49:17;;;;;;;5.77;3.97;;;36.50;1.00;;;;;;5098315;28;20444;-80
2022/05/20 10:54:52;;;;;;;5.83;4.40;;;37.00;1.00;;;;;;5094083;27;20461;-82
2022/05/20 10:57:35;;;;;;;4.17;3.50;;;37.00;1.00;;;;;;5097306;27;20470;-79
2022/05/20 11:00:13;;;;;;;5.17;3.10;;;36.90;1.00;;;;;;5097136;27;20450;-81
2022/05/20 11:03:06;;;;;;;5.77;3.73;;;37.20;1.00;;;;;;5096009;27;20470;-80
2022/05/20 11:06:14;;;;;;;5.33;3.60;;;37.60;1.00;;;;;;5096346;28;20455;-80
2022/05/20 11:08:52;;;;;;;4.70;3.23;;;37.80;1.00;;;;;;5097274;27;20979;-84
2022/05/20 11:11:34;;;;;;;6.10;3.60;;;37.90;1.00;;;;;;5097656;27;20430;-77
2022/05/20 11:14:27;;;;;;;3.50;2.70;;;37.60;1.00;;;;;;5088866;27;20923;-81
2022/05/20 11:17:20;;;;;;;3.60;3.03;;;37.60;1.00;;;;;;5099740;27;20457;-80
2022/05/20 11:20:30;;;;;;;6.93;3.07;;;37.70;1.00;;;;;;5086863;27;20419;-83
2022/05/20 11:23:40;;;;;;;4.60;3.20;;;37.50;1.00;;;;;;5046625;28;20558;-83
2022/05/20 11:26:51;;;;;;;3.40;2.50;;;37.90;1.00;;;;;;5031534;28;21004;-80
2022/05/20 11:29:52;;;;;;;5.33;2.93;;;37.00;1.00;;;;;;5088596;27;21068;-83
2022/05/20 11:32:33;;;;;;;4.20;3.30;;;37.20;1.00;;;;;;5063844;28;20563;-85
2022/05/20 11:35:42;;;;;;;5.47;3.37;;;36.60;1.00;;;;;;5072982;27;20441;-82
2022/05/20 11:38:40;;;;;;;3.37;3.07;;;36.80;1.00;;;;;;5082657;27;21595;-84
2022/05/20 11:41:25;;;;;;;4.67;2.33;;;37.10;1.00;;;;;;5076179;27;20451;-83
2022/05/20 11:44:13;;;;;;;4.90;3.43;;;37.40;1.00;;;;;;5042110;28;20453;-83
2022/05/20 11:47:10;;;;;;;3.90;2.87;;;38.00;1.00;;;;;;5054833;28;20483;-81
2022/05/20 11:50:12;;;;;;;4.60;4.20;;;38.30;1.00;;;;;;5055527;28;20494;-83
2022/05/20 11:55:50;;;;;;;5.10;2.30;;;38.30;1.00;;;;;;5034853;28;20479;-82
2022/05/20 11:58:28;;;;;;;3.83;2.67;;;38.40;1.00;;;;;;5085329;27;20443;-86
2022/05/20 12:00:57;;;;;;;3.40;2.73;;;38.70;1.00;;;;;;5053152;28;20520;-77
2022/05/20 12:03:29;;;;;;;4.50;3.10;;;39.10;1.00;;;;;;5086387;28;20477;-78
2022/05/20 12:05:58;;;;;;;4.73;2.67;;;39.50;1.00;;;;;;5089713;28;20484;-80
2022/05/20 12:08:49;;;;;;;4.13;3.13;;;39.40;1.00;;;;;;5094569;27;20485;-79
2022/05/20 12:11:24;;;;;;;2.60;1.80;;;39.60;1.00;;;;;;5100342;28;20462;-81
2022/05/20 12:14:04;;;;;;;4.13;2.13;;;39.80;1.00;;;;;;5101207;27;20522;-81
2022/05/20 12:17:02;;;;;;;5.60;2.70;;;40.40;1.00;;;;;;5080716;27;20474;-82
2022/05/20 12:25:48;;;;;;;2.93;2.63;;;40.00;1.00;;;;;;5037695;28;20505;-84
2022/05/20 12:28:31;;;;;;;2.93;2.40;;;40.10;1.00;;;;;;5056834;27;20472;-82
2022/05/20 12:31:19;;;;;;;3.50;3.20;;;40.00;1.00;;;;;;5095408;27;20418;-81
2022/05/20 12:33:51;;;;;;;2.83;2.23;;;40.20;1.00;;;;;;5080390;27;20846;-82
2022/05/20 12:36:25;;;;;;;4.00;3.60;;;40.70;1.00;;;;;;5083370;28;22328;-83
2022/05/20 12:39:12;;;;;;;2.67;2.40;;;41.40;1.00;;;;;;5099216;27;20528;-81
2022/05/20 12:41:46;;;;;;;4.90;2.50;;;41.50;1.00;;;;;;5083204;28;20557;-83
2022/05/20 12:44:35;;;;;;;3.17;2.53;;;41.00;1.00;;;;;;5078122;28;20509;-81
2022/05/20 12:47:20;;;;;;;3.70;3.40;;;41.10;1.00;;;;;;5079864;28;20470;-82
2022/05/20 12:49:59;;;;;;;2.90;2.50;;;41.10;1.00;;;;;;5088307;28;21408;-83
2022/05/20 12:52:33;;;;;;;2.53;2.33;;;40.80;1.00;;;;;;5103307;28;20455;-84
2022/05/20 12:55:11;;;;;;;2.53;2.23;;;40.40;1.00;;;;;;5101695;28;20502;-78
2022/05/20 12:57:49;;;;;;;3.27;2.90;;;40.20;1.00;;;;;;5105996;27;20460;-83
2022/05/20 13:00:24;;;;;;;3.97;2.53;;;39.90;1.00;;;;;;5105367;27;20992;-82
2022/05/20 13:02:55;;;;;;;3.97;2.60;;;40.00;1.00;;;;;;5097807;28;20535;-79
2022/05/20 13:05:27;;;;;;;5.00;3.00;;;39.20;1.00;;;;;;5104984;27;20458;-81
2022/05/20 13:07:57;;;;;;;4.80;3.10;;;38.50;1.00;;;;;;5102419;28;20974;-82
2022/05/20 13:10:30;;;;;;;7.13;3.70;;;38.90;1.00;;;;;;5070028;27;20544;-83
2022/05/20 13:13:05;;;;;;;3.10;2.70;;;38.80;1.00;;;;;;5086029;27;20561;-82
2022/05/20 13:15:41;;;;;;;3.47;1.90;;;38.30;1.00;;;;;;5093493;27;20552;-82
2022/05/20 13:18:13;;;;;;;3.73;2.07;;;37.90;1.00;;;;;;5097328;27;20445;-80
2022/05/20 13:20:42;;;;;;;2.60;2.17;;;37.20;1.00;;;;;;5092668;27;21028;-77
2022/05/20 13:23:09;;;;;;;2.60;1.70;;;36.90;1.00;;;;;;5101308;27;20864;-78
2022/05/20 13:25:36;;;;;;;6.93;3.03;;;36.60;1.00;;;;;;5097192;28;20453;-79
2022/05/20 13:28:05;;;;;;;2.93;2.43;;;36.30;1.00;;;;;;5095362;27;20465;-76
2022/05/20 13:30:34;;;;;;;4.37;2.40;;;36.40;1.00;;;;;;5100889;27;20580;-78
2022/05/20 13:33:02;;;;;;;2.73;1.90;;;36.50;1.00;;;;;;5098191;28;20461;-79
2022/05/20 13:35:29;;;;;;;6.20;2.43;;;36.80;1.00;;;;;;5095926;27;20589;-78
2022/05/20 13:38:01;;;;;;;5.00;2.30;;;36.90;1.00;;;;;;5101184;27;20443;-76
2022/05/20 13:40:33;;;;;;;3.17;2.17;;;35.90;1.00;;;;;;5098335;28;20492;-77
2022/05/20 13:43:02;;;;;;;2.47;2.13;;;35.60;1.00;;;;;;5094625;27;20473;-78
2022/05/20 13:51:06;;;;;;;3.10;2.07;;;33.40;1.00;;;;;;5099795;28;20473;-82
2022/05/20 13:53:34;;;;;;;3.23;2.17;;;32.90;1.00;;;;;;5088013;28;20457;-78
2022/05/20 13:56:01;;;;;;;4.63;2.90;;;32.90;1.00;;;;;;5073608;28;20447;-80
2022/05/20 13:58:30;;;;;;;3.10;2.70;;;33.00;1.00;;;;;;5074492;28;20737;-78
2022/05/20 14:01:03;;;;;;;2.33;2.00;;;32.70;1.00;;;;;;5075462;28;20546;-77
2022/05/20 14:03:31;;;;;;;4.77;2.90;;;32.60;1.00;;;;;;5075722;28;20486;-77
2022/05/20 14:06:03;;;;;;;5.00;3.00;;;32.40;1.00;;;;;;5073347;28;20920;-78
2022/05/20 14:08:35;;;;;;;2.97;2.20;;;32.10;1.00;;;;;;5072886;28;20490;-81
2022/05/20 14:11:06;;;;;;;6.13;2.93;;;31.60;1.00;;;;;;5095602;27;20474;-78
2022/05/20 14:13:36;;;;;;;4.80;2.80;;;31.10;1.00;;;;;;5098290;27;20466;-79